createdAt,value
2023-05-19T00:00:27.212Z,3.50
2023-05-19T00:01:27.213Z,3.30
2023-05-19T00:02:27.441Z,3.30
2023-05-19T00:03:27.277Z,3.50
2023-05-19T00:04:27.164Z,3.20
2023-05-19T00:05:27.218Z,3.00
2023-05-19T00:06:27.165Z,3.70
2023-05-19T00:07:27.167Z,2.80
2023-05-19T00:08:27.210Z,3.10
2023-05-19T00:09:27.117Z,3.50
2023-05-19T00:10:27.101Z,2.90
2023-05-19T00:11:27.124Z,3.20
2023-05-19T00:12:27.093Z,3.00
2023-05-19T00:13:27.075Z,3.30
2023-05-19T00:14:27.056Z,3.00
2023-05-19T00:15:27.062Z,3.20
2023-05-19T00:16:27.114Z,3.30
2023-05-19T00:17:27.051Z,4.00
2023-05-19T00:18:27.010Z,4.00
2023-05-19T00:19:27.094Z,3.20
2023-05-19T00:20:27.087Z,3.20
2023-05-19T00:21:26.986Z,3.30
2023-05-19T00:22:26.956Z,3.20
2023-05-19T00:23:26.955Z,2.90
2023-05-19T00:24:26.947Z,3.40
2023-05-19T00:25:26.945Z,3.00
2023-05-19T00:26:26.929Z,3.00
2023-05-19T00:27:27.004Z,2.90
2023-05-19T00:28:26.912Z,3.30
2023-05-19T00:29:26.942Z,3.10
2023-05-19T00:30:26.893Z,3.30
2023-05-19T00:31:26.940Z,3.20
2023-05-19T00:32:26.916Z,3.40
2023-05-19T00:33:26.853Z,4.20
2023-05-19T00:34:26.868Z,3.30
2023-05-19T00:35:26.824Z,3.60
2023-05-19T00:36:26.822Z,3.30
2023-05-19T00:37:26.802Z,3.30
2023-05-19T00:38:26.818Z,3.10
2023-05-19T00:39:26.788Z,3.10
2023-05-19T00:40:26.766Z,2.80
2023-05-19T00:41:26.750Z,3.40
2023-05-19T00:42:26.784Z,2.90
2023-05-19T00:43:26.744Z,3.40
2023-05-19T00:44:26.741Z,3.10
2023-05-19T00:45:26.723Z,3.00
2023-05-19T00:46:26.758Z,3.20
2023-05-19T00:47:26.788Z,3.10
2023-05-19T00:48:26.709Z,2.80
2023-05-19T00:49:26.676Z,3.10
2023-05-19T00:50:26.673Z,3.50
2023-05-19T00:51:26.689Z,3.80
2023-05-19T00:52:26.637Z,3.00
2023-05-19T00:53:26.649Z,3.30
2023-05-19T00:54:26.608Z,2.90
2023-05-19T00:55:26.601Z,2.90
2023-05-19T00:56:26.597Z,3.50
2023-05-19T00:57:26.624Z,3.00
2023-05-19T00:58:26.596Z,2.90
2023-05-19T00:59:26.550Z,3.00
2023-05-19T01:00:26.552Z,3.00
2023-05-19T01:01:26.608Z,3.20
2023-05-19T01:02:26.688Z,2.90
2023-05-19T01:03:26.629Z,3.30
2023-05-19T01:04:26.494Z,3.70
2023-05-19T01:05:26.494Z,3.20
2023-05-19T01:06:26.507Z,3.00
2023-05-19T01:07:26.477Z,2.70
2023-05-19T01:08:26.466Z,3.00
2023-05-19T01:09:26.444Z,3.60
2023-05-19T01:10:26.428Z,3.10
2023-05-19T01:11:26.435Z,3.10
2023-05-19T01:12:26.442Z,3.50
2023-05-19T01:13:26.395Z,3.30
2023-05-19T01:14:26.403Z,3.70
2023-05-19T01:15:26.389Z,3.60
2023-05-19T01:16:26.414Z,2.60
2023-05-19T01:17:26.428Z,3.30
2023-05-19T01:18:26.332Z,3.00
2023-05-19T01:19:26.335Z,3.20
2023-05-19T01:20:26.344Z,3.20
2023-05-19T01:21:26.339Z,4.00
2023-05-19T01:22:26.304Z,3.20
2023-05-19T01:23:26.284Z,2.80
2023-05-19T01:24:26.282Z,3.40
2023-05-19T01:25:26.280Z,3.40
2023-05-19T01:26:26.268Z,2.90
2023-05-19T01:27:26.246Z,3.40
2023-05-19T01:28:26.244Z,2.70
2023-05-19T01:29:26.245Z,3.50
2023-05-19T01:30:26.248Z,3.30
2023-05-19T01:31:26.250Z,4.40
2023-05-19T01:32:26.186Z,3.50
2023-05-19T01:33:26.212Z,3.10
2023-05-19T01:34:26.169Z,3.50
2023-05-19T01:35:26.267Z,3.00
2023-05-19T01:36:26.134Z,3.40
2023-05-19T01:37:26.149Z,3.40
2023-05-19T01:38:26.117Z,3.10
2023-05-19T01:39:26.142Z,3.30
2023-05-19T01:40:26.114Z,4.20
2023-05-19T01:41:26.109Z,3.10
2023-05-19T01:42:26.081Z,3.10
2023-05-19T01:43:26.064Z,3.20
2023-05-19T01:44:26.049Z,3.10
2023-05-19T01:45:26.075Z,3.40
2023-05-19T01:46:26.127Z,2.90
2023-05-19T01:47:26.027Z,3.20
2023-05-19T01:48:26.012Z,2.90
2023-05-19T01:49:26.034Z,3.30
2023-05-19T01:50:26.006Z,3.10
2023-05-19T01:51:25.980Z,3.30
2023-05-19T01:52:25.961Z,3.10
2023-05-19T01:53:25.965Z,3.50
2023-05-19T01:54:25.944Z,3.50
2023-05-19T01:55:25.977Z,3.60
2023-05-19T01:56:25.915Z,4.10
2023-05-19T01:57:25.916Z,3.70
2023-05-19T01:58:25.900Z,3.70
2023-05-19T01:59:25.931Z,3.80
2023-05-19T02:00:25.889Z,3.90
2023-05-19T02:01:25.995Z,3.90
2023-05-19T02:02:25.901Z,3.10
2023-05-19T02:03:25.854Z,3.60
2023-05-19T02:04:25.938Z,3.90
2023-05-19T02:05:25.828Z,4.00
2023-05-19T02:06:25.831Z,3.00
2023-05-19T02:07:25.806Z,3.50
2023-05-19T02:08:25.809Z,4.10
2023-05-19T02:09:25.793Z,3.40
2023-05-19T02:10:25.807Z,3.60
2023-05-19T02:11:25.766Z,3.90
2023-05-19T02:12:25.780Z,3.80
2023-05-19T02:13:25.748Z,3.40
2023-05-19T02:14:25.758Z,3.50
2023-05-19T02:15:25.704Z,3.60
2023-05-19T02:16:25.874Z,3.70
2023-05-19T02:17:25.745Z,3.30
2023-05-19T02:18:25.683Z,3.10
2023-05-19T02:19:25.900Z,3.80
2023-05-19T02:20:25.682Z,3.50
2023-05-19T02:21:25.673Z,2.90
2023-05-19T02:22:25.631Z,3.20
2023-05-19T02:23:25.651Z,3.50
2023-05-19T02:24:25.635Z,3.80
2023-05-19T02:25:25.606Z,3.90
2023-05-19T02:26:25.611Z,3.10
2023-05-19T02:27:25.583Z,3.40
2023-05-19T02:28:25.622Z,3.40
2023-05-19T02:29:25.545Z,3.50
2023-05-19T02:30:25.580Z,3.20
2023-05-19T02:31:25.560Z,3.60
2023-05-19T02:32:25.588Z,3.50
2023-05-19T02:33:25.570Z,3.40
2023-05-19T02:34:25.521Z,3.30
2023-05-19T02:35:25.477Z,3.30
2023-05-19T02:36:25.482Z,3.30
2023-05-19T02:37:25.468Z,3.50
2023-05-19T02:38:25.445Z,3.30
2023-05-19T02:39:25.446Z,3.40
2023-05-19T02:40:25.424Z,3.20
2023-05-19T02:41:25.457Z,3.70
2023-05-19T02:42:25.434Z,3.20
2023-05-19T02:43:25.401Z,3.60
2023-05-19T02:44:25.385Z,3.50
2023-05-19T02:45:25.375Z,3.10
2023-05-19T02:46:25.449Z,2.90
2023-05-19T02:47:25.396Z,3.20
2023-05-19T02:48:25.364Z,3.50
2023-05-19T02:49:25.339Z,3.70
2023-05-19T02:50:25.313Z,3.00
2023-05-19T02:51:25.334Z,3.20
2023-05-19T02:52:25.316Z,3.10
2023-05-19T02:53:25.275Z,3.50
2023-05-19T02:54:25.274Z,3.80
2023-05-19T02:55:25.275Z,3.50
2023-05-19T02:56:25.256Z,3.50
2023-05-19T02:57:25.262Z,3.30
2023-05-19T02:58:25.242Z,3.90
2023-05-19T02:59:25.778Z,3.10
2023-05-19T03:00:25.218Z,3.60
2023-05-19T03:01:25.212Z,3.00
2023-05-19T03:02:25.199Z,3.50
2023-05-19T03:03:25.254Z,3.00
2023-05-19T03:04:25.160Z,3.90
2023-05-19T03:05:25.172Z,4.30
2023-05-19T03:06:25.151Z,3.90
2023-05-19T03:07:25.381Z,3.30
2023-05-19T03:08:25.114Z,3.50
2023-05-19T03:09:25.125Z,4.10
2023-05-19T03:10:25.111Z,3.50
2023-05-19T03:11:25.083Z,3.70
2023-05-19T03:12:25.103Z,3.40
2023-05-19T03:13:25.058Z,3.10
2023-05-19T03:14:25.086Z,3.40
2023-05-19T03:15:25.027Z,4.00
2023-05-19T03:16:25.124Z,3.80
2023-05-19T03:17:25.225Z,3.20
2023-05-19T03:18:25.083Z,3.20
2023-05-19T03:19:25.064Z,3.70
2023-05-19T03:20:24.980Z,3.60
2023-05-19T03:21:24.990Z,3.30
2023-05-19T03:22:24.961Z,3.30
2023-05-19T03:23:24.979Z,4.00
2023-05-19T03:24:24.950Z,4.10
2023-05-19T03:25:24.929Z,3.40
2023-05-19T03:26:24.931Z,3.90
2023-05-19T03:27:24.923Z,3.50
2023-05-19T03:28:24.909Z,3.30
2023-05-19T03:29:24.925Z,3.50
2023-05-19T03:30:24.904Z,3.50
2023-05-19T03:31:24.886Z,3.20
2023-05-19T03:32:24.988Z,3.60
2023-05-19T03:33:24.928Z,3.60
2023-05-19T03:34:24.908Z,3.80
2023-05-19T03:35:24.824Z,4.10
2023-05-19T03:36:24.823Z,4.00
2023-05-19T03:37:24.818Z,3.70
2023-05-19T03:38:24.801Z,3.90
2023-05-19T03:39:24.841Z,3.60
2023-05-19T03:40:24.773Z,3.80
2023-05-19T03:41:24.801Z,4.10
2023-05-19T03:42:24.752Z,4.00
2023-05-19T03:43:24.724Z,3.50
2023-05-19T03:44:24.733Z,4.10
2023-05-19T03:45:24.737Z,3.80
2023-05-19T03:46:24.861Z,3.80
2023-05-19T03:47:24.767Z,4.00
2023-05-19T03:48:24.681Z,3.30
2023-05-19T03:49:24.662Z,3.70
2023-05-19T03:50:24.663Z,3.90
2023-05-19T03:51:24.656Z,3.60
2023-05-19T03:52:25.175Z,3.50
2023-05-19T03:53:24.627Z,3.50
2023-05-19T03:54:24.616Z,3.40
2023-05-19T03:55:24.594Z,3.50
2023-05-19T03:56:24.586Z,3.50
2023-05-19T03:57:24.593Z,3.20
2023-05-19T03:58:24.563Z,3.90
2023-05-19T03:59:24.557Z,3.80
2023-05-19T04:00:24.542Z,3.70
2023-05-19T04:01:24.654Z,3.70
2023-05-19T04:02:24.574Z,3.80
2023-05-19T04:03:24.627Z,3.20
2023-05-19T04:04:24.539Z,3.60
2023-05-19T04:05:25.503Z,3.60
2023-05-19T04:06:24.488Z,3.40
2023-05-19T04:07:24.578Z,3.80
2023-05-19T04:08:24.978Z,3.20
2023-05-19T04:09:24.422Z,3.90
2023-05-19T04:10:24.594Z,3.80
2023-05-19T04:11:24.429Z,3.40
2023-05-19T04:12:24.401Z,3.60
2023-05-19T04:13:24.393Z,4.40
2023-05-19T04:14:24.406Z,3.80
2023-05-19T04:15:24.421Z,3.80
2023-05-19T04:16:24.469Z,4.00
2023-05-19T04:17:24.392Z,3.50
2023-05-19T04:18:25.477Z,3.40
2023-05-19T04:19:24.510Z,4.30
2023-05-19T04:20:24.322Z,3.50
2023-05-19T04:21:24.334Z,3.50
2023-05-19T04:22:24.285Z,3.40
2023-05-19T04:23:24.275Z,3.80
2023-05-19T04:24:24.273Z,3.80
2023-05-19T04:25:24.278Z,3.50
2023-05-19T04:26:24.265Z,3.70
2023-05-19T04:27:24.243Z,4.00
2023-05-19T04:28:24.242Z,3.50
2023-05-19T04:29:24.321Z,3.70
2023-05-19T04:30:24.234Z,4.00
2023-05-19T04:31:24.251Z,3.90
2023-05-19T04:32:24.222Z,3.60
2023-05-19T04:33:24.179Z,3.60
2023-05-19T04:34:24.183Z,3.50
2023-05-19T04:35:24.140Z,3.90
2023-05-19T04:36:24.131Z,3.90
2023-05-19T04:37:24.121Z,4.10
2023-05-19T04:38:24.116Z,4.50
2023-05-19T04:39:24.119Z,3.80
2023-05-19T04:40:24.153Z,3.70
2023-05-19T04:41:24.081Z,3.60
2023-05-19T04:42:24.078Z,3.70
2023-05-19T04:43:24.068Z,3.50
2023-05-19T04:44:24.063Z,3.40
2023-05-19T04:45:24.058Z,3.50
2023-05-19T04:46:24.052Z,3.70
2023-05-19T04:47:24.062Z,3.20
2023-05-19T04:48:24.060Z,3.80
2023-05-19T04:49:23.994Z,3.80
2023-05-19T04:50:23.990Z,3.30
2023-05-19T04:51:23.991Z,3.10
2023-05-19T04:52:24.007Z,3.60
2023-05-19T04:53:23.963Z,3.80
2023-05-19T04:54:23.941Z,4.00
2023-05-19T04:55:23.936Z,3.40
2023-05-19T04:56:23.926Z,3.90
2023-05-19T04:57:23.960Z,3.70
2023-05-19T04:58:23.985Z,3.60
2023-05-19T04:59:23.875Z,3.60
2023-05-19T05:00:23.874Z,3.70
2023-05-19T05:01:23.910Z,3.40
2023-05-19T05:02:23.931Z,3.80
2023-05-19T05:03:23.968Z,4.40
2023-05-19T05:04:23.823Z,4.20
2023-05-19T05:05:24.144Z,4.10
2023-05-19T05:06:23.805Z,3.50
2023-05-19T05:07:23.798Z,3.90
2023-05-19T05:08:23.889Z,3.60
2023-05-19T05:09:23.816Z,3.20
2023-05-19T05:10:24.496Z,3.50
2023-05-19T05:11:23.768Z,3.60
2023-05-19T05:12:23.779Z,3.70
2023-05-19T05:13:23.738Z,3.20
2023-05-19T05:14:23.717Z,3.50
2023-05-19T05:15:23.709Z,3.80
2023-05-19T05:16:23.716Z,3.30
2023-05-19T05:17:23.709Z,3.10
2023-05-19T05:18:23.666Z,3.60
2023-05-19T05:19:23.807Z,3.70
2023-05-19T05:20:23.655Z,4.10
2023-05-19T05:21:23.636Z,4.00
2023-05-19T05:22:23.628Z,3.50
2023-05-19T05:23:23.617Z,3.70
2023-05-19T05:24:23.612Z,3.50
2023-05-19T05:25:23.595Z,3.10
2023-05-19T05:26:23.622Z,3.70
2023-05-19T05:27:23.717Z,4.70
2023-05-19T05:28:23.583Z,3.30
2023-05-19T05:29:23.562Z,4.00
2023-05-19T05:30:23.533Z,3.60
2023-05-19T05:31:23.524Z,3.80
2023-05-19T05:32:23.581Z,3.50
2023-05-19T05:33:23.614Z,3.90
2023-05-19T05:34:23.683Z,3.80
2023-05-19T05:35:23.564Z,3.30
2023-05-19T05:36:23.490Z,4.00
2023-05-19T05:37:23.460Z,3.90
2023-05-19T05:38:23.469Z,4.50
2023-05-19T05:39:23.457Z,3.50
2023-05-19T05:40:23.418Z,4.40
2023-05-19T05:41:23.409Z,3.70
2023-05-19T05:42:23.440Z,3.20
2023-05-19T05:43:23.376Z,3.30
2023-05-19T05:44:23.395Z,3.30
2023-05-19T05:45:23.380Z,3.80
2023-05-19T05:46:23.413Z,3.50
2023-05-19T05:47:23.334Z,3.70
2023-05-19T05:48:23.412Z,3.60
2023-05-19T05:49:23.369Z,3.50
2023-05-19T05:50:23.341Z,3.60
2023-05-19T05:51:23.398Z,4.40
2023-05-19T05:52:23.285Z,4.00
2023-05-19T05:53:23.439Z,3.80
2023-05-19T05:54:23.279Z,3.70
2023-05-19T05:55:23.325Z,3.40
2023-05-19T05:56:23.290Z,4.00
2023-05-19T05:57:23.263Z,3.80
2023-05-19T05:58:23.267Z,4.20
2023-05-19T05:59:23.226Z,3.60
2023-05-19T06:00:24.175Z,3.90
2023-05-19T06:01:23.236Z,3.60
2023-05-19T06:02:23.257Z,3.80
2023-05-19T06:03:23.257Z,3.90
2023-05-19T06:04:23.336Z,3.40
2023-05-19T06:05:23.198Z,4.20
2023-05-19T06:06:23.137Z,4.20
2023-05-19T06:07:23.133Z,3.30
2023-05-19T06:08:23.121Z,3.40
2023-05-19T06:09:23.117Z,3.60
2023-05-19T06:10:23.086Z,3.90
2023-05-19T06:11:23.076Z,3.70
2023-05-19T06:12:23.130Z,3.40
2023-05-19T06:13:23.068Z,4.10
2023-05-19T06:14:23.061Z,3.80
2023-05-19T06:15:23.029Z,3.80
2023-05-19T06:16:23.096Z,3.60
2023-05-19T06:17:23.157Z,4.00
2023-05-19T06:18:23.000Z,3.60
2023-05-19T06:19:23.243Z,3.50
2023-05-19T06:20:23.762Z,4.00
2023-05-19T06:21:33.601Z,3.60
2023-05-19T06:22:22.955Z,4.00
2023-05-19T06:23:22.940Z,3.90
2023-05-19T06:24:22.970Z,3.40
2023-05-19T06:25:22.921Z,3.80
2023-05-19T06:26:24.720Z,3.90
2023-05-19T06:27:37.089Z,3.10
2023-05-19T06:32:48.030Z,4.10
2023-05-19T06:33:48.111Z,4.00
2023-05-19T06:34:48.179Z,3.40
2023-05-19T06:35:48.085Z,3.50
2023-05-19T06:36:48.053Z,3.70
2023-05-19T06:37:48.060Z,3.60
2023-05-19T06:38:48.056Z,3.80
2023-05-19T06:39:48.063Z,3.20
2023-05-19T06:40:48.055Z,3.60
2023-05-19T06:41:48.015Z,3.40
2023-05-19T06:42:47.998Z,3.30
2023-05-19T06:43:48.033Z,3.50
2023-05-19T06:44:48.014Z,3.70
2023-05-19T06:45:47.978Z,3.50
2023-05-19T06:46:48.587Z,3.50
2023-05-19T06:47:47.967Z,3.20
2023-05-19T06:48:47.989Z,3.30
2023-05-19T06:49:48.093Z,2.90
2023-05-19T06:50:47.908Z,3.70
2023-05-19T06:51:47.955Z,3.10
2023-05-19T06:52:47.879Z,2.70
2023-05-19T06:53:47.931Z,3.30
2023-05-19T06:54:47.974Z,3.50
2023-05-19T06:55:57.971Z,3.30
2023-05-19T06:56:47.858Z,3.50
2023-05-19T06:57:47.857Z,3.00
2023-05-19T06:58:47.832Z,3.00
2023-05-19T06:59:48.870Z,2.60
2023-05-19T07:00:47.794Z,2.90
2023-05-19T07:01:47.828Z,3.00
2023-05-19T07:02:47.953Z,2.80
2023-05-19T07:03:47.922Z,2.50
2023-05-19T07:04:47.900Z,2.90
2023-05-19T07:05:47.748Z,3.00
2023-05-19T07:06:50.362Z,3.20
2023-05-19T07:07:50.456Z,2.40
2023-05-19T07:08:49.542Z,2.80
2023-05-19T07:09:47.958Z,3.40
2023-05-19T07:12:00.310Z,3.40
2023-05-19T07:13:00.381Z,3.10
2023-05-19T07:14:00.361Z,3.60
2023-05-19T07:15:00.381Z,2.70
2023-05-19T07:16:00.718Z,2.90
2023-05-19T07:17:00.320Z,3.50
2023-05-19T07:18:00.459Z,3.00
2023-05-19T07:19:00.380Z,2.70
2023-05-19T07:20:00.293Z,3.40
2023-05-19T07:21:00.377Z,3.30
2023-05-19T07:22:00.291Z,3.70
2023-05-19T07:23:00.296Z,3.40
2023-05-19T07:24:00.258Z,3.40
2023-05-19T07:25:01.014Z,3.70
2023-05-19T07:26:01.426Z,3.60
2023-05-19T07:27:00.466Z,3.80
2023-05-19T07:28:00.326Z,3.60
2023-05-19T07:29:00.339Z,3.40
2023-05-19T07:30:02.532Z,4.50
2023-05-19T07:33:18.806Z,4.10
2023-05-19T07:34:31.358Z,4.00
2023-05-19T07:35:18.900Z,3.70
2023-05-19T07:36:20.306Z,4.20
2023-05-19T07:37:30.856Z,3.60
2023-05-19T07:38:18.874Z,3.70
2023-05-19T07:39:18.917Z,3.40
2023-05-19T07:40:32.049Z,3.70
2023-05-19T07:41:18.840Z,3.60
2023-05-19T07:42:18.833Z,3.50
2023-05-19T07:43:19.352Z,3.50
2023-05-19T07:44:18.863Z,3.10
2023-05-19T07:45:30.442Z,3.70
2023-05-19T07:46:30.553Z,3.40
2023-05-19T07:47:18.770Z,3.10
2023-05-19T07:48:18.850Z,3.20
2023-05-19T07:49:18.726Z,3.30
2023-05-19T07:50:18.712Z,3.10
2023-05-19T07:51:18.747Z,3.50
2023-05-19T07:52:18.994Z,3.10
2023-05-19T07:53:18.748Z,3.60
2023-05-19T07:54:18.706Z,4.20
2023-05-19T07:55:18.663Z,4.30
2023-05-19T07:56:18.697Z,3.40
2023-05-19T07:57:18.624Z,3.80
2023-05-19T07:58:18.632Z,3.70
2023-05-19T07:59:27.840Z,2.70
2023-05-19T08:00:18.618Z,3.50
2023-05-19T08:01:18.614Z,3.90
2023-05-19T08:02:18.596Z,3.40
2023-05-19T08:03:18.842Z,3.50
2023-05-19T08:04:18.677Z,4.10
2023-05-19T08:05:18.587Z,4.00
2023-05-19T08:06:18.530Z,3.80
2023-05-19T08:07:18.529Z,3.90
2023-05-19T08:08:18.507Z,4.20
2023-05-19T08:09:18.519Z,4.50
2023-05-19T08:10:18.517Z,4.00
2023-05-19T08:11:18.463Z,4.60
2023-05-19T08:12:18.466Z,4.40
2023-05-19T08:13:18.465Z,4.30
2023-05-19T08:14:18.450Z,4.30
2023-05-19T08:15:18.447Z,3.80
2023-05-19T08:16:18.473Z,4.40
2023-05-19T08:17:18.464Z,3.80
2023-05-19T08:18:18.413Z,4.00
2023-05-19T08:19:18.648Z,3.70
2023-05-19T08:20:18.385Z,4.10
2023-05-19T08:21:18.370Z,3.90
2023-05-19T08:22:18.397Z,4.00
2023-05-19T08:23:18.356Z,3.80
2023-05-19T08:24:18.366Z,3.50
2023-05-19T08:25:18.351Z,3.60
2023-05-19T08:26:18.325Z,4.60
2023-05-19T08:27:18.300Z,4.20
2023-05-19T08:28:18.329Z,3.80
2023-05-19T08:29:18.294Z,4.30
2023-05-19T08:30:18.272Z,3.90
2023-05-19T08:31:18.387Z,4.30
2023-05-19T08:32:18.279Z,4.00
2023-05-19T08:33:18.247Z,3.90
2023-05-19T08:34:18.246Z,3.30
2023-05-19T08:35:18.287Z,3.70
2023-05-19T08:36:18.201Z,3.90
2023-05-19T08:37:18.795Z,3.40
2023-05-19T08:38:18.196Z,3.50
2023-05-19T08:39:18.234Z,4.20
2023-05-19T08:40:18.183Z,3.90
2023-05-19T08:41:18.145Z,4.20
2023-05-19T08:42:18.418Z,3.70
2023-05-19T08:43:18.130Z,3.70
2023-05-19T08:44:19.101Z,3.50
2023-05-19T08:45:18.136Z,3.60
2023-05-19T08:46:18.146Z,4.20
2023-05-19T08:47:19.850Z,3.70
2023-05-19T08:48:18.387Z,4.00
2023-05-19T08:49:18.082Z,3.60
2023-05-19T08:50:18.976Z,4.10
2023-05-19T08:51:18.030Z,3.90
2023-05-19T08:52:18.059Z,4.00
2023-05-19T08:53:31.929Z,4.00
2023-05-19T08:54:19.816Z,3.90
2023-05-19T08:55:18.035Z,3.70
2023-05-19T08:56:26.427Z,4.00
2023-05-19T08:57:35.061Z,3.50
2023-05-19T08:58:17.989Z,3.70
2023-05-19T09:01:19.899Z,4.10
2023-05-19T09:02:19.995Z,3.90
2023-05-19T09:04:20.034Z,3.30
2023-05-19T09:05:20.431Z,4.10
2023-05-19T09:06:19.859Z,3.70
2023-05-19T09:07:19.823Z,4.20
2023-05-19T09:08:19.828Z,4.00
2023-05-19T09:09:19.771Z,4.20
2023-05-19T09:10:19.790Z,4.00
2023-05-19T09:11:19.771Z,3.40
2023-05-19T09:12:19.845Z,3.90
2023-05-19T09:13:19.731Z,4.50
2023-05-19T09:14:19.730Z,3.80
2023-05-19T09:15:19.796Z,4.10
2023-05-19T09:16:19.787Z,4.00
2023-05-19T09:17:19.725Z,3.80
2023-05-19T09:18:19.680Z,3.90
2023-05-19T09:19:19.805Z,3.90
2023-05-19T09:20:19.724Z,4.10
2023-05-19T09:21:19.718Z,3.80
2023-05-19T09:22:19.646Z,3.40
2023-05-19T09:23:19.616Z,3.90
2023-05-19T09:24:19.623Z,3.90
2023-05-19T09:25:20.836Z,3.80
2023-05-19T09:26:19.616Z,4.40
2023-05-19T09:27:19.687Z,3.80
2023-05-19T09:28:19.622Z,4.20
2023-05-19T09:29:19.561Z,4.20
2023-05-19T09:30:19.719Z,4.10
2023-05-19T09:31:19.569Z,3.80
2023-05-19T09:32:19.645Z,4.30
2023-05-19T09:33:19.560Z,4.20
2023-05-19T09:34:19.514Z,4.20
2023-05-19T09:35:19.602Z,4.40
2023-05-19T09:36:19.511Z,4.40
2023-05-19T09:37:19.459Z,3.70
2023-05-19T09:38:19.481Z,4.20
2023-05-19T09:39:19.478Z,3.60
2023-05-19T09:40:19.456Z,4.00
2023-05-19T09:41:19.411Z,4.20
2023-05-19T09:42:19.412Z,4.20
2023-05-19T09:43:19.418Z,3.30
2023-05-19T09:44:19.434Z,4.40
2023-05-19T09:45:19.493Z,4.60
2023-05-19T09:46:19.379Z,3.80
2023-05-19T09:47:19.793Z,4.00
2023-05-19T09:48:21.113Z,4.00
2023-05-19T09:49:19.793Z,3.60
2023-05-19T09:50:20.005Z,3.10
2023-05-19T09:51:19.573Z,4.10
2023-05-19T09:52:19.647Z,4.40
2023-05-19T09:53:21.988Z,4.10
2023-05-19T09:54:19.292Z,4.50
2023-05-19T09:55:19.262Z,4.70
2023-05-19T09:56:19.261Z,4.70
2023-05-19T09:57:21.213Z,4.30
2023-05-19T09:58:19.299Z,5.20
2023-05-19T09:59:19.256Z,4.50
2023-05-19T10:00:19.212Z,4.50
2023-05-19T10:01:19.313Z,4.60
2023-05-19T10:02:19.960Z,3.80
2023-05-19T10:03:19.285Z,3.90
2023-05-19T10:04:19.177Z,3.80
2023-05-19T10:05:19.259Z,3.80
2023-05-19T10:06:20.883Z,4.30
2023-05-19T10:07:20.872Z,4.30
2023-05-19T10:08:19.155Z,4.30
2023-05-19T10:09:19.129Z,4.30
2023-05-19T10:10:19.189Z,4.10
2023-05-19T10:11:21.748Z,3.70
2023-05-19T10:12:20.966Z,3.70
2023-05-19T10:13:19.298Z,4.40
2023-05-19T10:14:19.073Z,4.20
2023-05-19T10:15:21.286Z,4.20
2023-05-19T10:16:21.102Z,4.20
2023-05-19T10:17:19.035Z,3.40
2023-05-19T10:18:19.022Z,4.00
2023-05-19T10:19:19.066Z,4.10
2023-05-19T10:20:19.304Z,4.20
2023-05-19T10:21:19.014Z,4.60
2023-05-19T10:22:26.942Z,4.20
2023-05-19T10:23:20.853Z,4.10
2023-05-19T10:24:21.579Z,4.70
2023-05-19T10:25:19.313Z,4.40
2023-05-19T10:26:18.928Z,4.70
2023-05-19T10:27:18.910Z,4.80
2023-05-19T10:28:18.909Z,3.80
2023-05-19T10:29:18.886Z,5.00
2023-05-19T10:30:18.892Z,4.50
2023-05-19T10:31:18.891Z,5.00
2023-05-19T10:32:18.909Z,5.30
2023-05-19T10:33:18.906Z,5.20
2023-05-19T10:34:18.840Z,4.80
2023-05-19T10:35:18.830Z,4.70
2023-05-19T10:36:18.870Z,4.70
2023-05-19T10:37:21.442Z,5.10
2023-05-19T10:38:18.912Z,4.90
2023-05-19T10:39:18.779Z,5.10
2023-05-19T10:40:18.794Z,5.10
2023-05-19T10:41:18.775Z,4.50
2023-05-19T10:42:18.781Z,4.80
2023-05-19T10:43:18.738Z,4.70
2023-05-19T10:44:18.742Z,4.70
2023-05-19T10:45:18.823Z,5.40
2023-05-19T10:46:18.749Z,5.10
2023-05-19T10:47:18.797Z,5.40
2023-05-19T10:48:19.228Z,4.60
2023-05-19T10:49:18.669Z,4.90
2023-05-19T10:50:18.682Z,4.70
2023-05-19T10:51:18.680Z,5.00
2023-05-19T10:52:18.673Z,4.90
2023-05-19T10:53:18.691Z,5.10
2023-05-19T10:54:18.881Z,5.00
2023-05-19T10:55:18.606Z,4.90
2023-05-19T10:56:18.638Z,4.30
2023-05-19T10:57:18.622Z,4.90
2023-05-19T10:58:18.650Z,4.70
2023-05-19T10:59:18.610Z,5.40
2023-05-19T11:00:18.551Z,4.90
2023-05-19T11:01:18.699Z,5.40
2023-05-19T11:02:18.572Z,5.10
2023-05-19T11:03:18.535Z,5.00
2023-05-19T11:04:18.557Z,5.00
2023-05-19T11:05:18.524Z,4.50
2023-05-19T11:06:18.492Z,3.70
2023-05-19T11:07:18.584Z,4.70
2023-05-19T11:08:18.474Z,4.60
2023-05-19T11:09:19.493Z,4.70
2023-05-19T11:10:18.454Z,4.30
2023-05-19T11:11:18.425Z,4.80
2023-05-19T11:12:18.427Z,5.10
2023-05-19T11:13:18.430Z,5.10
2023-05-19T11:14:18.423Z,4.80
2023-05-19T11:15:18.444Z,4.40
2023-05-19T11:16:18.394Z,5.20
2023-05-19T11:17:18.373Z,4.90
2023-05-19T11:18:18.370Z,5.20
2023-05-19T11:19:18.384Z,5.10
2023-05-19T11:20:18.336Z,5.30
2023-05-19T11:21:18.473Z,4.70
2023-05-19T11:22:18.351Z,4.10
2023-05-19T11:23:18.322Z,5.20
2023-05-19T11:24:18.283Z,5.00
2023-05-19T11:25:18.279Z,5.40
2023-05-19T11:26:18.379Z,3.50
2023-05-19T11:27:18.281Z,4.50
2023-05-19T11:28:18.276Z,5.50
2023-05-19T11:29:18.240Z,4.60
2023-05-19T11:30:18.258Z,5.10
2023-05-19T11:31:18.205Z,5.20
2023-05-19T11:32:18.239Z,4.80
2023-05-19T11:33:18.251Z,5.00
2023-05-19T11:34:18.207Z,5.00
2023-05-19T11:35:18.171Z,4.60
2023-05-19T11:36:18.400Z,4.60
2023-05-19T11:37:18.193Z,5.20
2023-05-19T11:38:18.181Z,4.80
2023-05-19T11:39:18.155Z,5.60
2023-05-19T11:40:18.912Z,5.30
2023-05-19T11:41:19.498Z,4.60
2023-05-19T11:42:18.091Z,5.00
2023-05-19T11:43:18.066Z,5.40
2023-05-19T11:44:18.082Z,5.00
2023-05-19T11:45:18.107Z,5.30
2023-05-19T11:46:18.158Z,4.50
2023-05-19T11:47:18.087Z,4.90
2023-05-19T11:48:18.106Z,6.00
2023-05-19T11:49:18.004Z,5.30
2023-05-19T11:50:18.096Z,5.60
2023-05-19T11:51:19.522Z,5.20
2023-05-19T11:52:17.976Z,5.30
2023-05-19T11:53:18.078Z,5.10
2023-05-19T11:54:18.265Z,5.50
2023-05-19T11:55:20.792Z,5.60
2023-05-19T11:56:17.975Z,5.50
2023-05-19T11:57:17.914Z,5.40
2023-05-19T11:58:18.018Z,5.40
2023-05-19T11:59:19.797Z,4.90
2023-05-19T12:00:21.856Z,6.00
2023-05-19T12:01:20.467Z,5.90
2023-05-19T12:02:19.672Z,5.80
2023-05-19T12:03:17.916Z,5.50
2023-05-19T12:04:17.905Z,5.70
2023-05-19T12:05:17.955Z,5.70
2023-05-19T12:06:18.387Z,5.70
2023-05-19T12:07:17.899Z,5.50
2023-05-19T12:08:17.810Z,5.50
2023-05-19T12:09:17.797Z,4.00
2023-05-19T12:10:17.796Z,4.40
2023-05-19T12:11:18.304Z,5.20
2023-05-19T12:12:17.798Z,5.30
2023-05-19T12:13:17.811Z,5.80
2023-05-19T12:14:17.823Z,5.10
2023-05-19T12:15:17.717Z,4.80
2023-05-19T12:16:17.762Z,5.50
2023-05-19T12:17:17.728Z,5.80
2023-05-19T12:18:17.724Z,4.90
2023-05-19T12:19:17.743Z,5.20
2023-05-19T12:20:17.658Z,5.30
2023-05-19T12:21:17.652Z,5.10
2023-05-19T12:22:17.650Z,5.40
2023-05-19T12:23:17.683Z,6.10
2023-05-19T12:24:17.656Z,5.40
2023-05-19T12:25:17.685Z,5.40
2023-05-19T12:26:17.593Z,5.20
2023-05-19T12:27:17.612Z,5.70
2023-05-19T12:28:17.586Z,5.30
2023-05-19T12:29:17.587Z,5.20
2023-05-19T12:30:17.572Z,5.30
2023-05-19T12:31:17.563Z,5.00
2023-05-19T12:32:17.569Z,5.70
2023-05-19T12:33:17.516Z,5.50
2023-05-19T12:34:17.501Z,5.80
2023-05-19T12:35:17.590Z,5.30
2023-05-19T12:36:17.498Z,6.10
2023-05-19T12:37:17.575Z,3.80
2023-05-19T12:38:17.461Z,5.30
2023-05-19T12:39:18.459Z,5.90
2023-05-19T12:40:17.455Z,5.50
2023-05-19T12:41:17.446Z,5.90
2023-05-19T12:42:17.427Z,5.40
2023-05-19T12:43:17.412Z,5.20
2023-05-19T12:44:17.398Z,6.40
2023-05-19T12:45:17.411Z,5.70
2023-05-19T12:46:17.544Z,6.80
2023-05-19T12:47:17.365Z,6.80
2023-05-19T12:48:17.473Z,7.00
2023-05-19T12:49:17.341Z,6.00
2023-05-19T12:50:17.360Z,5.70
2023-05-19T12:51:17.361Z,5.90
2023-05-19T12:52:17.303Z,5.70
2023-05-19T12:53:17.300Z,6.60
2023-05-19T12:54:17.314Z,6.40
2023-05-19T12:55:17.375Z,6.90
2023-05-19T12:56:17.275Z,6.20
2023-05-19T12:57:17.267Z,6.10
2023-05-19T12:58:17.308Z,6.00
2023-05-19T12:59:26.818Z,7.20
2023-05-19T13:00:17.245Z,6.30
2023-05-19T13:01:17.500Z,6.60
2023-05-19T13:02:17.389Z,7.80
2023-05-19T13:03:17.394Z,6.10
2023-05-19T13:04:17.187Z,5.90
2023-05-19T13:05:17.182Z,5.60
2023-05-19T13:06:17.154Z,4.60
2023-05-19T13:07:17.149Z,5.60
2023-05-19T13:08:17.130Z,5.70
2023-05-19T13:09:17.156Z,5.40
2023-05-19T13:10:17.137Z,5.90
2023-05-19T13:11:17.105Z,5.20
2023-05-19T13:12:17.089Z,6.20
2023-05-19T13:13:17.191Z,5.60
2023-05-19T13:14:17.088Z,5.30
2023-05-19T13:15:17.100Z,5.70
2023-05-19T13:16:17.094Z,6.50
2023-05-19T13:17:17.035Z,5.20
2023-05-19T13:18:17.028Z,5.10
2023-05-19T13:19:24.801Z,5.70
2023-05-19T13:20:17.012Z,5.90
2023-05-19T13:21:16.988Z,5.70
2023-05-19T13:22:17.053Z,5.40
2023-05-19T13:23:17.027Z,6.20
2023-05-19T13:24:16.962Z,5.50
2023-05-19T13:25:17.062Z,5.40
2023-05-19T13:26:17.022Z,6.20
2023-05-19T13:27:16.958Z,5.50
2023-05-19T13:28:16.916Z,6.40
2023-05-19T13:29:16.916Z,5.80